Askale, Turkey
Current Conditions -  °F | °C
As of 8:20 PM on Thursday 30 Oct 2014 (Local Time) from LTCE Reporting Station
Rain Showers Rain Showers  
Wind Chill: 39°   Ceiling: 2000
Heat Index: 43°   Visibility: 6mi
Dew Point: 41°   Wind: 7mph
Humidity: 93%   Direction: 80°E
Pressure: 30.12"   Gusts: NA
Location:  39.92°N, 40.7°E
Report Text: LTCE 301720Z 08006KT 050V110 9999 -SHRA BKN020 BKN070 06/05 Q1020 NOSIG
Loading
Personal Weather Stations






























Interactive Weather Map
Tropical Storm Tracking
New forecast layout! Learn more

10-Day Weather Forecast

Advertisements
Track Severe Weather on mobile